sensor_id;sensor_type;location;lat;lon;timestamp;temperature;humidity
51383;DHT22;37475;43.358;1.248;2022-09-17T00:01:03;16.10;77.40
51383;DHT22;37475;43.358;1.248;2022-09-17T00:03:30;16.10;77.40
51383;DHT22;37475;43.358;1.248;2022-09-17T00:06:05;16.10;77.40
51383;DHT22;37475;43.358;1.248;2022-09-17T00:08:34;16.10;77.30
51383;DHT22;37475;43.358;1.248;2022-09-17T00:11:08;16.10;77.30
51383;DHT22;37475;43.358;1.248;2022-09-17T00:13:36;16.10;77.40
51383;DHT22;37475;43.358;1.248;2022-09-17T00:16:02;16.00;77.50
51383;DHT22;37475;43.358;1.248;2022-09-17T00:18:28;16.00;77.50
51383;DHT22;37475;43.358;1.248;2022-09-17T00:20:54;16.00;77.80
51383;DHT22;37475;43.358;1.248;2022-09-17T00:23:20;16.00;77.90
51383;DHT22;37475;43.358;1.248;2022-09-17T00:25:46;16.00;77.80
51383;DHT22;37475;43.358;1.248;2022-09-17T00:28:12;15.90;78.00
51383;DHT22;37475;43.358;1.248;2022-09-17T00:30:43;15.90;78.00
51383;DHT22;37475;43.358;1.248;2022-09-17T00:33:12;15.90;78.50
51383;DHT22;37475;43.358;1.248;2022-09-17T00:35:39;15.80;78.50
51383;DHT22;37475;43.358;1.248;2022-09-17T00:38:05;15.80;78.80
51383;DHT22;37475;43.358;1.248;2022-09-17T00:40:31;15.70;78.90
51383;DHT22;37475;43.358;1.248;2022-09-17T00:42:57;15.70;79.10
51383;DHT22;37475;43.358;1.248;2022-09-17T00:45:23;15.60;79.10
51383;DHT22;37475;43.358;1.248;2022-09-17T00:50:27;15.60;79.60
51383;DHT22;37475;43.358;1.248;2022-09-17T00:53:05;15.50;79.80
51383;DHT22;37475;43.358;1.248;2022-09-17T00:55:40;15.50;79.70
51383;DHT22;37475;43.358;1.248;2022-09-17T00:58:10;15.50;80.00
51383;DHT22;37475;43.358;1.248;2022-09-17T01:00:38;15.30;80.40
51383;DHT22;37475;43.358;1.248;2022-09-17T01:03:04;15.30;80.70
51383;DHT22;37475;43.358;1.248;2022-09-17T01:05:46;15.30;80.80
51383;DHT22;37475;43.358;1.248;2022-09-17T01:17:37;15.10;82.20
51383;DHT22;37475;43.358;1.248;2022-09-17T01:26:23;14.80;83.20
51383;DHT22;37475;43.358;1.248;2022-09-17T01:32:41;14.80;83.40
51383;DHT22;37475;43.358;1.248;2022-09-17T01:35:33;14.70;83.60
51383;DHT22;37475;43.358;1.248;2022-09-17T01:38:43;14.60;83.90
51383;DHT22;37475;43.358;1.248;2022-09-17T01:41:40;14.60;84.00
51383;DHT22;37475;43.358;1.248;2022-09-17T01:47:28;14.50;84.50
51383;DHT22;37475;43.358;1.248;2022-09-17T01:50:02;14.50;84.80
51383;DHT22;37475;43.358;1.248;2022-09-17T01:52:35;14.40;85.00
51383;DHT22;37475;43.358;1.248;2022-09-17T01:55:09;14.40;85.10
51383;DHT22;37475;43.358;1.248;2022-09-17T01:58:04;14.30;85.30
51383;DHT22;37475;43.358;1.248;2022-09-17T02:01:00;14.30;85.50
51383;DHT22;37475;43.358;1.248;2022-09-17T02:03:31;14.30;85.70
51383;DHT22;37475;43.358;1.248;2022-09-17T02:06:18;14.30;85.90
51383;DHT22;37475;43.358;1.248;2022-09-17T02:11:31;14.20;86.10
51383;DHT22;37475;43.358;1.248;2022-09-17T02:14:29;14.10;86.30
51383;DHT22;37475;43.358;1.248;2022-09-17T02:17:23;14.10;86.50
51383;DHT22;37475;43.358;1.248;2022-09-17T02:19:53;14.10;86.60
51383;DHT22;37475;43.358;1.248;2022-09-17T02:22:25;14.10;86.60
51383;DHT22;37475;43.358;1.248;2022-09-17T02:27:53;14.10;86.60
51383;DHT22;37475;43.358;1.248;2022-09-17T02:30:23;14.20;86.60
51383;DHT22;37475;43.358;1.248;2022-09-17T02:32:49;14.10;86.60
51383;DHT22;37475;43.358;1.248;2022-09-17T02:35:16;14.10;86.70
51383;DHT22;37475;43.358;1.248;2022-09-17T02:37:42;14.10;86.70
51383;DHT22;37475;43.358;1.248;2022-09-17T02:40:13;14.00;86.90
51383;DHT22;37475;43.358;1.248;2022-09-17T02:46:20;14.00;87.20
51383;DHT22;37475;43.358;1.248;2022-09-17T02:52:19;13.90;87.40
51383;DHT22;37475;43.358;1.248;2022-09-17T02:54:56;13.90;87.60
51383;DHT22;37475;43.358;1.248;2022-09-17T02:58:41;13.90;87.60
51383;DHT22;37475;43.358;1.248;2022-09-17T03:00:46;13.90;87.60
51383;DHT22;37475;43.358;1.248;2022-09-17T03:05:55;13.70;87.80
51383;DHT22;37475;43.358;1.248;2022-09-17T03:08:28;13.70;87.90
51383;DHT22;37475;43.358;1.248;2022-09-17T03:10:57;13.70;88.10
51383;DHT22;37475;43.358;1.248;2022-09-17T03:13:24;13.60;88.20
51383;DHT22;37475;43.358;1.248;2022-09-17T03:15:50;13.60;88.20
51383;DHT22;37475;43.358;1.248;2022-09-17T03:18:16;13.60;88.20
51383;DHT22;37475;43.358;1.248;2022-09-17T03:20:41;13.60;88.50
51383;DHT22;37475;43.358;1.248;2022-09-17T03:23:07;13.50;88.80
51383;DHT22;37475;43.358;1.248;2022-09-17T03:25:33;13.60;88.80
51383;DHT22;37475;43.358;1.248;2022-09-17T03:27:59;13.50;88.70
51383;DHT22;37475;43.358;1.248;2022-09-17T03:30:25;13.50;88.90
51383;DHT22;37475;43.358;1.248;2022-09-17T03:32:51;13.60;88.70
51383;DHT22;37475;43.358;1.248;2022-09-17T03:35:16;13.50;88.80
51383;DHT22;37475;43.358;1.248;2022-09-17T03:37:42;13.50;89.10
51383;DHT22;37475;43.358;1.248;2022-09-17T03:40:08;13.40;89.20
51383;DHT22;37475;43.358;1.248;2022-09-17T03:42:34;13.40;89.20
51383;DHT22;37475;43.358;1.248;2022-09-17T03:45:00;13.50;89.10
51383;DHT22;37475;43.358;1.248;2022-09-17T03:47:26;13.50;89.00
51383;DHT22;37475;43.358;1.248;2022-09-17T03:49:52;13.60;88.80
51383;DHT22;37475;43.358;1.248;2022-09-17T03:52:18;13.60;88.80
51383;DHT22;37475;43.358;1.248;2022-09-17T03:54:43;13.60;88.70
51383;DHT22;37475;43.358;1.248;2022-09-17T03:57:09;13.50;88.80
51383;DHT22;37475;43.358;1.248;2022-09-17T03:59:35;13.50;88.80
51383;DHT22;37475;43.358;1.248;2022-09-17T04:02:01;13.50;88.90
51383;DHT22;37475;43.358;1.248;2022-09-17T04:04:26;13.60;88.80
51383;DHT22;37475;43.358;1.248;2022-09-17T04:06:52;13.60;88.90
51383;DHT22;37475;43.358;1.248;2022-09-17T04:09:19;13.60;88.90
51383;DHT22;37475;43.358;1.248;2022-09-17T04:11:45;13.60;88.90
51383;DHT22;37475;43.358;1.248;2022-09-17T04:14:10;13.60;88.90
51383;DHT22;37475;43.358;1.248;2022-09-17T04:16:36;13.60;88.90
51383;DHT22;37475;43.358;1.248;2022-09-17T04:19:02;13.70;88.80
51383;DHT22;37475;43.358;1.248;2022-09-17T04:21:28;13.70;88.70
51383;DHT22;37475;43.358;1.248;2022-09-17T04:23:54;13.80;88.60
51383;DHT22;37475;43.358;1.248;2022-09-17T04:26:19;13.80;88.50
51383;DHT22;37475;43.358;1.248;2022-09-17T04:28:45;13.90;88.50
51383;DHT22;37475;43.358;1.248;2022-09-17T04:31:11;13.80;88.50
51383;DHT22;37475;43.358;1.248;2022-09-17T04:33:37;13.90;88.40
51383;DHT22;37475;43.358;1.248;2022-09-17T04:36:03;13.90;88.10
51383;DHT22;37475;43.358;1.248;2022-09-17T04:38:29;13.90;88.50
51383;DHT22;37475;43.358;1.248;2022-09-17T04:40:55;13.90;88.60
51383;DHT22;37475;43.358;1.248;2022-09-17T04:43:22;14.00;88.40
51383;DHT22;37475;43.358;1.248;2022-09-17T04:45:48;14.10;88.40
51383;DHT22;37475;43.358;1.248;2022-09-17T04:48:15;14.10;88.20
51383;DHT22;37475;43.358;1.248;2022-09-17T04:50:41;14.10;87.90
51383;DHT22;37475;43.358;1.248;2022-09-17T04:53:07;14.10;88.30
51383;DHT22;37475;43.358;1.248;2022-09-17T04:55:33;14.10;88.40
51383;DHT22;37475;43.358;1.248;2022-09-17T04:57:59;14.00;88.30
51383;DHT22;37475;43.358;1.248;2022-09-17T05:00:25;14.00;88.80
51383;DHT22;37475;43.358;1.248;2022-09-17T05:02:52;14.10;88.70
51383;DHT22;37475;43.358;1.248;2022-09-17T05:05:19;14.10;88.50
51383;DHT22;37475;43.358;1.248;2022-09-17T05:07:45;14.10;88.30
51383;DHT22;37475;43.358;1.248;2022-09-17T05:10:14;14.10;88.30
51383;DHT22;37475;43.358;1.248;2022-09-17T05:12:40;14.10;88.10
51383;DHT22;37475;43.358;1.248;2022-09-17T05:15:12;14.00;88.20
51383;DHT22;37475;43.358;1.248;2022-09-17T05:17:38;14.10;88.40
51383;DHT22;37475;43.358;1.248;2022-09-17T05:20:04;14.10;87.90
51383;DHT22;37475;43.358;1.248;2022-09-17T05:22:30;14.10;87.80
51383;DHT22;37475;43.358;1.248;2022-09-17T05:24:56;14.00;87.90
51383;DHT22;37475;43.358;1.248;2022-09-17T05:27:22;14.00;88.30
51383;DHT22;37475;43.358;1.248;2022-09-17T05:29:47;14.00;88.10
51383;DHT22;37475;43.358;1.248;2022-09-17T05:32:13;14.00;88.30
51383;DHT22;37475;43.358;1.248;2022-09-17T05:34:39;14.10;88.20
51383;DHT22;37475;43.358;1.248;2022-09-17T05:37:08;14.00;87.70
51383;DHT22;37475;43.358;1.248;2022-09-17T05:39:35;14.00;87.60
51383;DHT22;37475;43.358;1.248;2022-09-17T05:42:01;14.00;87.70
51383;DHT22;37475;43.358;1.248;2022-09-17T05:44:27;14.00;87.60
51383;DHT22;37475;43.358;1.248;2022-09-17T05:46:53;14.10;87.50
51383;DHT22;37475;43.358;1.248;2022-09-17T05:49:19;14.10;87.80
51383;DHT22;37475;43.358;1.248;2022-09-17T05:51:45;14.10;87.60
51383;DHT22;37475;43.358;1.248;2022-09-17T05:54:11;14.00;87.60
51383;DHT22;37475;43.358;1.248;2022-09-17T05:56:37;14.00;87.50
51383;DHT22;37475;43.358;1.248;2022-09-17T05:59:03;14.00;87.50
51383;DHT22;37475;43.358;1.248;2022-09-17T06:01:29;14.10;87.60
51383;DHT22;37475;43.358;1.248;2022-09-17T06:03:54;14.10;87.40
51383;DHT22;37475;43.358;1.248;2022-09-17T06:06:20;14.10;87.40
51383;DHT22;37475;43.358;1.248;2022-09-17T06:08:46;14.10;87.40
51383;DHT22;37475;43.358;1.248;2022-09-17T06:11:12;14.00;87.50
51383;DHT22;37475;43.358;1.248;2022-09-17T06:13:38;14.10;87.40
51383;DHT22;37475;43.358;1.248;2022-09-17T06:16:04;14.10;87.50
51383;DHT22;37475;43.358;1.248;2022-09-17T06:18:30;14.10;86.80
51383;DHT22;37475;43.358;1.248;2022-09-17T06:20:58;14.10;86.20
51383;DHT22;37475;43.358;1.248;2022-09-17T06:23:26;14.20;85.90
51383;DHT22;37475;43.358;1.248;2022-09-17T06:25:55;14.20;86.00
51383;DHT22;37475;43.358;1.248;2022-09-17T06:28:25;14.20;86.10
51383;DHT22;37475;43.358;1.248;2022-09-17T06:30:52;14.30;85.90
51383;DHT22;37475;43.358;1.248;2022-09-17T06:33:22;14.30;85.70
51383;DHT22;37475;43.358;1.248;2022-09-17T06:35:55;14.30;85.40
51383;DHT22;37475;43.358;1.248;2022-09-17T06:38:21;14.40;85.00
51383;DHT22;37475;43.358;1.248;2022-09-17T06:40:51;14.30;84.40
51383;DHT22;37475;43.358;1.248;2022-09-17T06:43:17;14.30;84.10
51383;DHT22;37475;43.358;1.248;2022-09-17T06:45:49;14.40;84.20
51383;DHT22;37475;43.358;1.248;2022-09-17T06:48:16;14.40;84.20
51383;DHT22;37475;43.358;1.248;2022-09-17T06:50:42;14.60;84.40
51383;DHT22;37475;43.358;1.248;2022-09-17T06:53:08;14.60;83.70
51383;DHT22;37475;43.358;1.248;2022-09-17T06:55:34;14.50;83.00
51383;DHT22;37475;43.358;1.248;2022-09-17T06:58:00;14.50;83.00
51383;DHT22;37475;43.358;1.248;2022-09-17T07:00:26;14.50;82.40
51383;DHT22;37475;43.358;1.248;2022-09-17T07:02:56;14.50;82.40
51383;DHT22;37475;43.358;1.248;2022-09-17T07:05:23;14.60;83.00
51383;DHT22;37475;43.358;1.248;2022-09-17T07:07:50;14.70;82.60
51383;DHT22;37475;43.358;1.248;2022-09-17T07:10:16;14.80;81.30
51383;DHT22;37475;43.358;1.248;2022-09-17T07:12:42;14.70;79.60
51383;DHT22;37475;43.358;1.248;2022-09-17T07:15:09;14.80;80.50
51383;DHT22;37475;43.358;1.248;2022-09-17T07:17:40;14.80;78.90
51383;DHT22;37475;43.358;1.248;2022-09-17T07:20:09;14.90;79.30
51383;DHT22;37475;43.358;1.248;2022-09-17T07:22:36;15.00;78.50
51383;DHT22;37475;43.358;1.248;2022-09-17T07:25:02;15.00;77.90
51383;DHT22;37475;43.358;1.248;2022-09-17T07:27:29;14.90;77.80
51383;DHT22;37475;43.358;1.248;2022-09-17T07:29:56;15.10;78.50
51383;DHT22;37475;43.358;1.248;2022-09-17T07:32:22;15.10;78.20
51383;DHT22;37475;43.358;1.248;2022-09-17T07:34:48;15.10;77.80
51383;DHT22;37475;43.358;1.248;2022-09-17T07:37:17;15.30;77.60
51383;DHT22;37475;43.358;1.248;2022-09-17T07:39:43;15.50;76.50
51383;DHT22;37475;43.358;1.248;2022-09-17T07:42:10;15.30;75.90
51383;DHT22;37475;43.358;1.248;2022-09-17T07:44:36;15.20;75.90
51383;DHT22;37475;43.358;1.248;2022-09-17T07:47:02;15.20;76.20
51383;DHT22;37475;43.358;1.248;2022-09-17T07:49:28;15.30;76.00
51383;DHT22;37475;43.358;1.248;2022-09-17T07:51:55;15.40;75.80
51383;DHT22;37475;43.358;1.248;2022-09-17T07:54:21;15.40;76.40
51383;DHT22;37475;43.358;1.248;2022-09-17T07:56:48;15.50;76.60
51383;DHT22;37475;43.358;1.248;2022-09-17T07:59:13;15.50;76.80
51383;DHT22;37475;43.358;1.248;2022-09-17T08:01:39;15.60;76.20
51383;DHT22;37475;43.358;1.248;2022-09-17T08:04:05;15.80;75.60
51383;DHT22;37475;43.358;1.248;2022-09-17T08:06:36;15.90;74.80
51383;DHT22;37475;43.358;1.248;2022-09-17T08:09:03;16.00;74.80
51383;DHT22;37475;43.358;1.248;2022-09-17T08:11:30;16.10;74.70
51383;DHT22;37475;43.358;1.248;2022-09-17T08:13:56;16.20;74.40
51383;DHT22;37475;43.358;1.248;2022-09-17T08:16:22;16.10;73.80
51383;DHT22;37475;43.358;1.248;2022-09-17T08:18:54;16.00;74.20
51383;DHT22;37475;43.358;1.248;2022-09-17T08:21:21;15.80;74.50
51383;DHT22;37475;43.358;1.248;2022-09-17T08:23:47;15.90;74.30
51383;DHT22;37475;43.358;1.248;2022-09-17T08:26:15;15.80;74.00
51383;DHT22;37475;43.358;1.248;2022-09-17T08:28:50;15.90;74.10
51383;DHT22;37475;43.358;1.248;2022-09-17T08:31:20;16.10;73.30
51383;DHT22;37475;43.358;1.248;2022-09-17T08:33:47;16.00;73.60
51383;DHT22;37475;43.358;1.248;2022-09-17T08:36:16;16.20;73.60
51383;DHT22;37475;43.358;1.248;2022-09-17T08:38:43;16.30;73.60
51383;DHT22;37475;43.358;1.248;2022-09-17T08:44:29;16.40;72.50
51383;DHT22;37475;43.358;1.248;2022-09-17T08:46:45;16.40;72.20
51383;DHT22;37475;43.358;1.248;2022-09-17T09:00:21;17.10;70.20
51383;DHT22;37475;43.358;1.248;2022-09-17T09:05:57;17.30;67.60
51383;DHT22;37475;43.358;1.248;2022-09-17T09:11:00;17.50;67.10
51383;DHT22;37475;43.358;1.248;2022-09-17T09:13:32;17.60;65.70
51383;DHT22;37475;43.358;1.248;2022-09-17T09:16:02;17.70;66.90
51383;DHT22;37475;43.358;1.248;2022-09-17T09:18:34;17.80;65.50
51383;DHT22;37475;43.358;1.248;2022-09-17T09:26:57;18.10;63.50
51383;DHT22;37475;43.358;1.248;2022-09-17T09:30:07;18.30;63.20
51383;DHT22;37475;43.358;1.248;2022-09-17T09:33:13;18.50;61.80
51383;DHT22;37475;43.358;1.248;2022-09-17T09:35:42;18.60;60.70
51383;DHT22;37475;43.358;1.248;2022-09-17T09:40:59;18.80;57.20
51383;DHT22;37475;43.358;1.248;2022-09-17T09:44:02;18.80;58.60
51383;DHT22;37475;43.358;1.248;2022-09-17T09:58:37;19.60;53.80
51383;DHT22;37475;43.358;1.248;2022-09-17T10:01:24;19.80;53.20
51383;DHT22;37475;43.358;1.248;2022-09-17T10:03:52;20.00;52.50
51383;DHT22;37475;43.358;1.248;2022-09-17T10:06:20;20.00;52.10
51383;DHT22;37475;43.358;1.248;2022-09-17T10:11:24;19.90;53.70
51383;DHT22;37475;43.358;1.248;2022-09-17T10:14:23;20.20;52.90
51383;DHT22;37475;43.358;1.248;2022-09-17T10:23:06;20.10;50.30
51383;DHT22;37475;43.358;1.248;2022-09-17T10:25:33;20.20;47.40
51383;DHT22;37475;43.358;1.248;2022-09-17T10:28:03;20.50;48.60
51383;DHT22;37475;43.358;1.248;2022-09-17T10:30:31;20.50;50.20
51383;DHT22;37475;43.358;1.248;2022-09-17T10:33:24;20.70;50.50
51383;DHT22;37475;43.358;1.248;2022-09-17T10:36:04;21.20;48.50
51383;DHT22;37475;43.358;1.248;2022-09-17T10:38:43;20.90;46.70
51383;DHT22;37475;43.358;1.248;2022-09-17T10:41:22;20.00;48.00
51383;DHT22;37475;43.358;1.248;2022-09-17T10:43:49;19.90;49.30
51383;DHT22;37475;43.358;1.248;2022-09-17T10:46:25;19.90;49.60
51383;DHT22;37475;43.358;1.248;2022-09-17T10:49:13;20.50;47.70
51383;DHT22;37475;43.358;1.248;2022-09-17T10:51:44;20.60;47.30
51383;DHT22;37475;43.358;1.248;2022-09-17T10:54:20;20.30;47.00
51383;DHT22;37475;43.358;1.248;2022-09-17T10:56:58;20.40;47.80
51383;DHT22;37475;43.358;1.248;2022-09-17T11:05:58;21.10;46.60
51383;DHT22;37475;43.358;1.248;2022-09-17T11:30:34;22.10;41.70
51383;DHT22;37475;43.358;1.248;2022-09-17T11:35:46;22.80;42.00
51383;DHT22;37475;43.358;1.248;2022-09-17T11:38:20;22.80;42.10
51383;DHT22;37475;43.358;1.248;2022-09-17T11:41:09;23.20;41.60
51383;DHT22;37475;43.358;1.248;2022-09-17T11:43:46;23.00;41.30
51383;DHT22;37475;43.358;1.248;2022-09-17T11:46:26;23.30;41.10
51383;DHT22;37475;43.358;1.248;2022-09-17T11:49:05;22.50;41.50
51383;DHT22;37475;43.358;1.248;2022-09-17T11:52:03;22.40;42.40
51383;DHT22;37475;43.358;1.248;2022-09-17T11:57:26;23.10;41.90
51383;DHT22;37475;43.358;1.248;2022-09-17T12:00:05;23.60;40.60
51383;DHT22;37475;43.358;1.248;2022-09-17T12:05:28;23.90;38.50
51383;DHT22;37475;43.358;1.248;2022-09-17T12:08:24;23.90;39.60
51383;DHT22;37475;43.358;1.248;2022-09-17T12:11:17;24.20;37.70
51383;DHT22;37475;43.358;1.248;2022-09-17T12:13:52;24.50;37.20
51383;DHT22;37475;43.358;1.248;2022-09-17T12:16:31;24.90;36.40
51383;DHT22;37475;43.358;1.248;2022-09-17T12:19:15;25.10;36.60
51383;DHT22;37475;43.358;1.248;2022-09-17T12:21:53;25.20;37.00
51383;DHT22;37475;43.358;1.248;2022-09-17T12:24:26;24.50;36.00
51383;DHT22;37475;43.358;1.248;2022-09-17T12:27:10;23.90;36.60
51383;DHT22;37475;43.358;1.248;2022-09-17T12:30:12;23.60;37.50
51383;DHT22;37475;43.358;1.248;2022-09-17T12:39:08;24.20;37.90
51383;DHT22;37475;43.358;1.248;2022-09-17T12:42:06;25.00;35.20
51383;DHT22;37475;43.358;1.248;2022-09-17T12:59:16;26.50;32.90
51383;DHT22;37475;43.358;1.248;2022-09-17T13:04:51;27.00;30.40
51383;DHT22;37475;43.358;1.248;2022-09-17T13:11:20;24.80;31.70
51383;DHT22;37475;43.358;1.248;2022-09-17T13:13:46;23.90;34.50
51383;DHT22;37475;43.358;1.248;2022-09-17T13:16:29;25.50;32.80
51383;DHT22;37475;43.358;1.248;2022-09-17T13:22:29;27.30;29.70
51383;DHT22;37475;43.358;1.248;2022-09-17T13:25:08;27.70;29.70
51383;DHT22;37475;43.358;1.248;2022-09-17T13:27:37;28.00;28.90
51383;DHT22;37475;43.358;1.248;2022-09-17T13:30:05;27.70;28.50
51383;DHT22;37475;43.358;1.248;2022-09-17T13:37:42;25.70;32.20
51383;DHT22;37475;43.358;1.248;2022-09-17T13:43:11;26.10;30.90
51383;DHT22;37475;43.358;1.248;2022-09-17T13:48:25;26.80;29.50
51383;DHT22;37475;43.358;1.248;2022-09-17T13:50:54;26.00;29.70
51383;DHT22;37475;43.358;1.248;2022-09-17T13:53:24;26.10;30.50
51383;DHT22;37475;43.358;1.248;2022-09-17T13:55:53;26.60;29.50
51383;DHT22;37475;43.358;1.248;2022-09-17T13:58:33;26.80;27.60
51383;DHT22;37475;43.358;1.248;2022-09-17T14:09:59;27.00;28.10
51383;DHT22;37475;43.358;1.248;2022-09-17T14:21:24;26.30;28.30
51383;DHT22;37475;43.358;1.248;2022-09-17T14:23:56;27.00;27.40
51383;DHT22;37475;43.358;1.248;2022-09-17T14:26:46;27.20;28.00
51383;DHT22;37475;43.358;1.248;2022-09-17T14:32:47;27.60;26.70
51383;DHT22;37475;43.358;1.248;2022-09-17T14:41:15;25.30;28.00
51383;DHT22;37475;43.358;1.248;2022-09-17T14:46:36;26.00;27.90
51383;DHT22;37475;43.358;1.248;2022-09-17T14:51:47;26.40;26.60
51383;DHT22;37475;43.358;1.248;2022-09-17T14:59:57;26.40;28.90
51383;DHT22;37475;43.358;1.248;2022-09-17T15:05:24;27.00;25.70
51383;DHT22;37475;43.358;1.248;2022-09-17T15:13:25;28.60;25.40
51383;DHT22;37475;43.358;1.248;2022-09-17T15:16:06;26.40;26.00
51383;DHT22;37475;43.358;1.248;2022-09-17T15:18:41;26.00;26.10
51383;DHT22;37475;43.358;1.248;2022-09-17T15:24:12;25.40;26.90
51383;DHT22;37475;43.358;1.248;2022-09-17T15:26:44;27.00;26.30
51383;DHT22;37475;43.358;1.248;2022-09-17T15:29:13;27.10;25.10
51383;DHT22;37475;43.358;1.248;2022-09-17T15:31:40;27.30;25.40
51383;DHT22;37475;43.358;1.248;2022-09-17T15:34:10;27.70;24.80
51383;DHT22;37475;43.358;1.248;2022-09-17T15:36:37;26.90;25.20
51383;DHT22;37475;43.358;1.248;2022-09-17T15:39:29;26.90;25.30
51383;DHT22;37475;43.358;1.248;2022-09-17T15:42:01;27.60;26.00
51383;DHT22;37475;43.358;1.248;2022-09-17T15:44:27;27.90;24.60
51383;DHT22;37475;43.358;1.248;2022-09-17T15:46:53;27.30;24.00
51383;DHT22;37475;43.358;1.248;2022-09-17T15:49:32;27.30;24.50
51383;DHT22;37475;43.358;1.248;2022-09-17T15:52:25;27.90;24.40
51383;DHT22;37475;43.358;1.248;2022-09-17T15:54:56;28.50;24.20
51383;DHT22;37475;43.358;1.248;2022-09-17T15:57:23;29.20;23.50
51383;DHT22;37475;43.358;1.248;2022-09-17T15:59:50;29.70;23.40
51383;DHT22;37475;43.358;1.248;2022-09-17T16:02:28;30.60;22.00
51383;DHT22;37475;43.358;1.248;2022-09-17T16:06:05;30.40;22.20
51383;DHT22;37475;43.358;1.248;2022-09-17T16:08:20;30.70;21.80
51383;DHT22;37475;43.358;1.248;2022-09-17T16:10:47;29.20;22.50
51383;DHT22;37475;43.358;1.248;2022-09-17T16:13:14;26.60;24.30
51383;DHT22;37475;43.358;1.248;2022-09-17T16:15:40;26.00;26.10
51383;DHT22;37475;43.358;1.248;2022-09-17T16:18:11;27.50;25.80
51383;DHT22;37475;43.358;1.248;2022-09-17T16:20:37;26.70;24.70
51383;DHT22;37475;43.358;1.248;2022-09-17T16:23:02;26.90;24.70
51383;DHT22;37475;43.358;1.248;2022-09-17T16:25:28;26.10;25.90
51383;DHT22;37475;43.358;1.248;2022-09-17T16:28:17;26.00;25.60
51383;DHT22;37475;43.358;1.248;2022-09-17T16:30:46;27.00;25.70
51383;DHT22;37475;43.358;1.248;2022-09-17T16:33:14;26.50;25.70
51383;DHT22;37475;43.358;1.248;2022-09-17T16:35:41;27.20;25.00
51383;DHT22;37475;43.358;1.248;2022-09-17T16:38:08;27.60;24.00
51383;DHT22;37475;43.358;1.248;2022-09-17T16:40:42;26.50;25.60
51383;DHT22;37475;43.358;1.248;2022-09-17T16:43:11;26.50;26.00
51383;DHT22;37475;43.358;1.248;2022-09-17T16:45:37;26.60;25.80
51383;DHT22;37475;43.358;1.248;2022-09-17T16:48:04;26.50;26.00
51383;DHT22;37475;43.358;1.248;2022-09-17T16:50:30;25.80;26.30
51383;DHT22;37475;43.358;1.248;2022-09-17T16:52:56;25.70;26.60
51383;DHT22;37475;43.358;1.248;2022-09-17T16:55:22;26.50;26.80
51383;DHT22;37475;43.358;1.248;2022-09-17T16:57:48;26.40;24.10
51383;DHT22;37475;43.358;1.248;2022-09-17T17:00:16;26.10;25.40
51383;DHT22;37475;43.358;1.248;2022-09-17T17:02:52;25.70;26.20
51383;DHT22;37475;43.358;1.248;2022-09-17T17:05:19;26.30;25.90
51383;DHT22;37475;43.358;1.248;2022-09-17T17:07:45;25.60;26.70
51383;DHT22;37475;43.358;1.248;2022-09-17T17:10:11;25.30;27.10
51383;DHT22;37475;43.358;1.248;2022-09-17T17:12:37;25.50;28.10
51383;DHT22;37475;43.358;1.248;2022-09-17T17:15:04;24.90;28.00
51383;DHT22;37475;43.358;1.248;2022-09-17T17:17:31;24.40;29.70
51383;DHT22;37475;43.358;1.248;2022-09-17T17:20:00;24.30;29.60
51383;DHT22;37475;43.358;1.248;2022-09-17T17:22:29;24.50;29.50
51383;DHT22;37475;43.358;1.248;2022-09-17T17:24:55;24.10;29.20
51383;DHT22;37475;43.358;1.248;2022-09-17T17:27:21;23.70;30.00
51383;DHT22;37475;43.358;1.248;2022-09-17T17:29:47;23.60;30.40
51383;DHT22;37475;43.358;1.248;2022-09-17T17:32:12;23.50;32.40
51383;DHT22;37475;43.358;1.248;2022-09-17T17:34:38;23.30;31.10
51383;DHT22;37475;43.358;1.248;2022-09-17T17:37:04;23.00;31.70
51383;DHT22;37475;43.358;1.248;2022-09-17T17:39:30;23.00;33.80
51383;DHT22;37475;43.358;1.248;2022-09-17T17:41:56;23.20;33.40
51383;DHT22;37475;43.358;1.248;2022-09-17T17:44:22;23.30;33.40
51383;DHT22;37475;43.358;1.248;2022-09-17T17:46:48;23.30;33.10
51383;DHT22;37475;43.358;1.248;2022-09-17T17:49:14;22.80;36.10
51383;DHT22;37475;43.358;1.248;2022-09-17T17:51:40;21.90;37.80
51383;DHT22;37475;43.358;1.248;2022-09-17T17:54:05;21.30;40.60
51383;DHT22;37475;43.358;1.248;2022-09-17T17:56:32;20.90;40.90
51383;DHT22;37475;43.358;1.248;2022-09-17T17:58:58;20.80;41.30
51383;DHT22;37475;43.358;1.248;2022-09-17T18:01:27;20.60;41.50
51383;DHT22;37475;43.358;1.248;2022-09-17T18:03:58;20.60;42.10
51383;DHT22;37475;43.358;1.248;2022-09-17T18:06:25;20.70;42.10
51383;DHT22;37475;43.358;1.248;2022-09-17T18:08:52;20.60;41.70
51383;DHT22;37475;43.358;1.248;2022-09-17T18:11:19;20.60;42.60
51383;DHT22;37475;43.358;1.248;2022-09-17T18:13:45;20.50;43.10
51383;DHT22;37475;43.358;1.248;2022-09-17T18:16:14;20.10;45.10
51383;DHT22;37475;43.358;1.248;2022-09-17T18:18:41;19.90;43.70
51383;DHT22;37475;43.358;1.248;2022-09-17T18:21:11;19.60;44.60
51383;DHT22;37475;43.358;1.248;2022-09-17T18:23:45;19.50;44.30
51383;DHT22;37475;43.358;1.248;2022-09-17T18:26:16;19.40;44.90
51383;DHT22;37475;43.358;1.248;2022-09-17T18:28:46;19.10;44.20
51383;DHT22;37475;43.358;1.248;2022-09-17T18:31:29;19.00;44.30
51383;DHT22;37475;43.358;1.248;2022-09-17T18:34:01;18.80;43.80
51383;DHT22;37475;43.358;1.248;2022-09-17T18:36:30;18.60;44.30
51383;DHT22;37475;43.358;1.248;2022-09-17T18:38:59;18.60;42.70
51383;DHT22;37475;43.358;1.248;2022-09-17T18:41:31;18.50;42.50
51383;DHT22;37475;43.358;1.248;2022-09-17T18:43:58;18.50;42.40
51383;DHT22;37475;43.358;1.248;2022-09-17T18:46:25;18.50;42.60
51383;DHT22;37475;43.358;1.248;2022-09-17T18:48:52;18.50;42.30
51383;DHT22;37475;43.358;1.248;2022-09-17T18:51:19;18.30;42.80
51383;DHT22;37475;43.358;1.248;2022-09-17T18:53:45;18.40;42.50
51383;DHT22;37475;43.358;1.248;2022-09-17T18:56:16;18.30;43.50
51383;DHT22;37475;43.358;1.248;2022-09-17T18:58:48;18.20;42.70
51383;DHT22;37475;43.358;1.248;2022-09-17T19:01:16;18.20;44.60
51383;DHT22;37475;43.358;1.248;2022-09-17T19:03:42;18.20;43.30
51383;DHT22;37475;43.358;1.248;2022-09-17T19:06:10;18.10;44.80
51383;DHT22;37475;43.358;1.248;2022-09-17T19:08:37;18.10;44.00
51383;DHT22;37475;43.358;1.248;2022-09-17T19:11:04;18.10;43.30
51383;DHT22;37475;43.358;1.248;2022-09-17T19:13:41;18.10;44.80
51383;DHT22;37475;43.358;1.248;2022-09-17T19:16:09;18.10;46.70
51383;DHT22;37475;43.358;1.248;2022-09-17T19:18:37;18.00;45.70
51383;DHT22;37475;43.358;1.248;2022-09-17T19:21:05;18.00;49.10
51383;DHT22;37475;43.358;1.248;2022-09-17T19:23:42;17.80;47.00
51383;DHT22;37475;43.358;1.248;2022-09-17T19:26:11;17.70;48.10
51383;DHT22;37475;43.358;1.248;2022-09-17T19:28:39;17.60;48.80
51383;DHT22;37475;43.358;1.248;2022-09-17T19:31:07;17.60;48.20